createdAt,value
2022-12-11T00:00:57.407Z,73.04
2022-12-11T00:03:25.523Z,73.40
2022-12-11T00:05:53.511Z,73.00
2022-12-11T00:08:22.797Z,72.92
2022-12-11T00:10:51.077Z,72.87
2022-12-11T00:13:18.913Z,72.72
2022-12-11T00:15:46.834Z,73.09
2022-12-11T00:18:15.238Z,72.99
2022-12-11T00:20:43.188Z,72.50
2022-12-11T00:23:11.887Z,72.67
2022-12-11T00:25:45.079Z,73.23
2022-12-11T00:28:13.467Z,73.12
2022-12-11T00:30:42.375Z,73.28
2022-12-11T00:33:12.067Z,73.42
2022-12-11T00:35:41.859Z,73.26
2022-12-11T00:38:10.423Z,73.04
2022-12-11T00:40:38.756Z,72.89
2022-12-11T00:43:08.547Z,72.57
2022-12-11T00:45:38.226Z,72.40
2022-12-11T00:48:07.120Z,72.54
2022-12-11T00:50:35.453Z,72.21
2022-12-11T00:53:04.470Z,72.03
2022-12-11T00:55:33.405Z,72.11
2022-12-11T00:58:01.420Z,71.33
2022-12-11T01:00:30.988Z,71.41
2022-12-11T01:02:58.900Z,71.27
2022-12-11T01:05:27.117Z,71.38
2022-12-11T01:07:55.579Z,71.23
2022-12-11T01:10:26.383Z,71.14
2022-12-11T01:12:56.244Z,71.37
2022-12-11T01:15:26.011Z,71.20
2022-12-11T01:17:55.620Z,70.86
2022-12-11T01:20:25.483Z,71.07
2022-12-11T01:22:54.215Z,71.29
2022-12-11T01:25:22.549Z,70.54
2022-12-11T01:27:52.497Z,70.72
2022-12-11T01:30:22.457Z,70.47
2022-12-11T01:32:50.883Z,70.56
2022-12-11T01:35:20.722Z,70.18
2022-12-11T01:37:49.286Z,70.74
2022-12-11T01:40:20.119Z,70.68
2022-12-11T01:42:48.264Z,70.38
2022-12-11T01:45:39.975Z,69.63
2022-12-11T01:48:11.164Z,69.26
2022-12-11T01:50:45.066Z,68.60
2022-12-11T01:53:18.687Z,68.32
2022-12-11T01:55:49.451Z,68.65
2022-12-11T01:58:19.475Z,68.99
2022-12-11T02:00:47.679Z,68.75
2022-12-11T02:03:15.711Z,68.26
2022-12-11T02:05:45.235Z,68.35
2022-12-11T02:08:13.658Z,68.25
2022-12-11T02:10:55.836Z,68.25
2022-12-11T02:13:30.647Z,68.56
2022-12-11T02:16:05.941Z,67.95
2022-12-11T02:18:39.967Z,67.91
2022-12-11T02:21:14.413Z,67.81
2022-12-11T02:24:04.563Z,68.19
2022-12-11T02:26:47.447Z,68.46
2022-12-11T02:29:21.053Z,68.58
2022-12-11T02:31:54.674Z,68.53
2022-12-11T02:34:26.428Z,68.63
2022-12-11T02:37:00.279Z,68.73
2022-12-11T02:39:29.661Z,68.61
2022-12-11T02:41:57.999Z,68.73
2022-12-11T02:44:31.599Z,69.07
2022-12-11T02:47:00.543Z,69.05
2022-12-11T02:49:29.363Z,69.26
2022-12-11T02:51:58.163Z,69.99
2022-12-11T02:54:31.368Z,70.27
2022-12-11T02:57:04.773Z,70.60
2022-12-11T02:59:35.807Z,70.38
2022-12-11T03:02:04.405Z,70.53
2022-12-11T03:04:34.848Z,70.52
2022-12-11T03:07:12.005Z,70.52
2022-12-11T03:09:40.583Z,70.53
2022-12-11T03:12:10.689Z,70.34
2022-12-11T03:14:41.902Z,70.00
2022-12-11T03:17:14.937Z,69.84
2022-12-11T03:19:51.264Z,69.47
2022-12-11T03:22:23.860Z,69.95
2022-12-11T03:24:54.851Z,69.56
2022-12-11T03:27:28.198Z,69.93
2022-12-11T03:30:01.450Z,70.10
2022-12-11T03:32:32.366Z,70.11
2022-12-11T03:35:04.819Z,69.85
2022-12-11T03:37:37.651Z,69.81
2022-12-11T03:40:11.867Z,69.51
2022-12-11T03:42:41.532Z,69.32
2022-12-11T03:45:13.115Z,69.76
2022-12-11T03:47:43.823Z,69.70
2022-12-11T03:50:15.373Z,69.65
2022-12-11T03:52:46.374Z,69.46
2022-12-11T03:55:17.219Z,69.71
2022-12-11T03:57:45.655Z,69.87
2022-12-11T04:00:18.021Z,69.78
2022-12-11T04:03:12.645Z,69.85
2022-12-11T04:05:42.416Z,69.75
2022-12-11T04:08:11.328Z,69.53
2022-12-11T04:10:39.715Z,69.48
2022-12-11T04:13:08.406Z,69.44
2022-12-11T04:15:38.735Z,69.05
2022-12-11T04:18:25.537Z,69.36
2022-12-11T04:21:12.750Z,69.11
2022-12-11T04:23:58.579Z,69.05
2022-12-11T04:26:26.905Z,69.19
2022-12-11T04:28:55.452Z,69.94
2022-12-11T04:31:24.719Z,70.08
2022-12-11T04:33:53.258Z,70.25
2022-12-11T04:36:21.436Z,69.64
2022-12-11T04:38:49.371Z,69.71
2022-12-11T04:41:18.331Z,69.85
2022-12-11T04:43:46.325Z,69.56
2022-12-11T04:46:16.505Z,69.10
2022-12-11T04:48:46.273Z,69.22
2022-12-11T04:51:15.246Z,69.51
2022-12-11T04:53:43.297Z,69.33
2022-12-11T04:56:13.787Z,69.53
2022-12-11T04:58:42.433Z,69.48
2022-12-11T05:01:11.597Z,69.45
2022-12-11T05:03:40.530Z,69.33
2022-12-11T05:06:10.943Z,69.50
2022-12-11T05:08:40.706Z,69.47
2022-12-11T05:11:11.719Z,69.35
2022-12-11T05:13:40.440Z,69.26
2022-12-11T05:16:10.334Z,69.30
2022-12-11T05:18:38.634Z,69.58
2022-12-11T05:21:09.745Z,70.07
2022-12-11T05:23:38.310Z,70.38
2022-12-11T05:26:09.787Z,70.45
2022-12-11T05:28:39.132Z,70.26
2022-12-11T05:31:09.683Z,70.06
2022-12-11T05:33:37.686Z,69.93
2022-12-11T05:36:06.126Z,69.66
2022-12-11T05:38:35.920Z,69.88
2022-12-11T05:41:07.181Z,70.22
2022-12-11T05:43:37.867Z,70.08
2022-12-11T05:46:07.236Z,70.39
2022-12-11T05:48:35.889Z,70.22
2022-12-11T05:51:05.276Z,70.09
2022-12-11T05:53:35.581Z,69.91
2022-12-11T05:56:04.621Z,70.04
2022-12-11T05:58:33.013Z,70.09
2022-12-11T06:01:02.159Z,69.70
2022-12-11T06:03:30.283Z,69.67
2022-12-11T06:05:58.387Z,69.93
2022-12-11T06:08:26.783Z,69.87
2022-12-11T06:10:56.346Z,70.01
2022-12-11T06:13:24.639Z,69.90
2022-12-11T06:15:52.817Z,70.03
2022-12-11T06:18:21.219Z,69.64
2022-12-11T06:20:49.356Z,69.81
2022-12-11T06:23:18.356Z,69.73
2022-12-11T06:25:46.513Z,69.60
2022-12-11T06:28:16.266Z,68.71
2022-12-11T06:30:45.018Z,68.81
2022-12-11T06:33:13.520Z,69.26
2022-12-11T06:35:42.575Z,69.52
2022-12-11T06:38:10.978Z,69.73
2022-12-11T06:40:39.472Z,69.71
2022-12-11T06:43:07.505Z,69.58
2022-12-11T06:45:38.472Z,69.20
2022-12-11T06:48:07.035Z,68.47
2022-12-11T06:50:34.908Z,69.05
2022-12-11T06:53:03.127Z,69.07
2022-12-11T06:55:31.481Z,69.01
2022-12-11T06:57:59.564Z,68.67
2022-12-11T07:00:27.675Z,68.82
2022-12-11T07:02:57.151Z,68.58
2022-12-11T07:05:25.369Z,68.12
2022-12-11T07:07:54.774Z,68.99
2022-12-11T07:10:23.573Z,69.43
2022-12-11T07:12:53.489Z,68.90
2022-12-11T07:15:21.935Z,68.87
2022-12-11T07:17:49.859Z,68.99
2022-12-11T07:20:19.170Z,68.98
2022-12-11T07:22:47.156Z,69.02
2022-12-11T07:25:15.383Z,68.88
2022-12-11T07:27:43.707Z,69.04
2022-12-11T07:30:13.082Z,69.69
2022-12-11T07:32:41.178Z,69.59
2022-12-11T07:35:10.437Z,69.23
2022-12-11T07:37:42.619Z,69.18
2022-12-11T07:40:11.684Z,68.77
2022-12-11T07:42:45.821Z,68.44
2022-12-11T07:45:14.388Z,68.34
2022-12-11T07:47:42.837Z,68.30
2022-12-11T07:50:11.276Z,68.36
2022-12-11T07:52:39.158Z,68.67
2022-12-11T07:55:09.694Z,67.95
2022-12-11T07:57:38.490Z,67.72
2022-12-11T08:00:07.903Z,67.74
2022-12-11T08:02:40.687Z,67.62
2022-12-11T08:05:10.222Z,67.79
2022-12-11T08:07:38.977Z,67.41
2022-12-11T08:10:08.968Z,67.52
2022-12-11T08:12:37.037Z,67.36
2022-12-11T08:15:05.674Z,67.24
2022-12-11T08:17:39.693Z,67.18
2022-12-11T08:20:09.649Z,67.52
2022-12-11T08:22:37.698Z,67.41
2022-12-11T08:25:06.458Z,67.26
2022-12-11T08:27:35.933Z,67.06
2022-12-11T08:30:04.738Z,66.82
2022-12-11T08:32:32.623Z,66.40
2022-12-11T08:35:00.852Z,66.35
2022-12-11T08:37:29.661Z,66.56
2022-12-11T08:39:57.677Z,66.40
2022-12-11T08:42:25.663Z,66.52
2022-12-11T08:44:55.013Z,67.09
2022-12-11T08:47:23.107Z,67.37
2022-12-11T08:49:51.132Z,67.18
2022-12-11T08:52:18.967Z,66.98
2022-12-11T08:54:46.831Z,66.92
2022-12-11T08:57:14.762Z,67.04
2022-12-11T08:59:44.951Z,66.82
2022-12-11T09:02:14.453Z,66.97
2022-12-11T09:04:43.288Z,67.35
2022-12-11T09:07:12.060Z,67.58
2022-12-11T09:09:39.994Z,67.52
2022-12-11T09:12:07.959Z,67.65
2022-12-11T09:14:36.170Z,67.50
2022-12-11T09:17:05.485Z,67.35
2022-12-11T09:19:34.876Z,68.07
2022-12-11T09:22:03.494Z,67.97
2022-12-11T09:24:31.449Z,67.72
2022-12-11T09:26:59.546Z,67.54
2022-12-11T09:29:27.694Z,67.66
2022-12-11T09:31:55.959Z,67.28
2022-12-11T09:34:29.151Z,67.44
2022-12-11T09:36:59.538Z,67.66
2022-12-11T09:39:27.744Z,68.30
2022-12-11T09:42:03.692Z,67.99
2022-12-11T09:44:39.116Z,67.95
2022-12-11T09:47:18.465Z,68.13
2022-12-11T09:49:49.456Z,67.78
2022-12-11T09:52:24.827Z,67.70
2022-12-11T09:54:58.309Z,67.93
2022-12-11T09:57:44.040Z,67.56
2022-12-11T10:00:20.314Z,67.32
2022-12-11T10:03:03.856Z,67.28
2022-12-11T10:05:40.013Z,67.76
2022-12-11T10:08:19.119Z,68.37
2022-12-11T10:10:56.796Z,68.83
2022-12-11T10:13:31.764Z,68.47
2022-12-11T10:16:06.695Z,68.13
2022-12-11T10:18:35.382Z,68.51
2022-12-11T10:21:04.530Z,68.36
2022-12-11T10:23:39.812Z,68.38
2022-12-11T10:26:12.449Z,68.39
2022-12-11T10:28:40.474Z,68.61
2022-12-11T10:31:18.361Z,68.87
2022-12-11T10:33:57.595Z,68.64
2022-12-11T10:36:30.249Z,68.52
2022-12-11T10:38:59.901Z,68.73
2022-12-11T10:41:38.070Z,69.06
2022-12-11T10:44:16.507Z,68.66
2022-12-11T10:46:45.757Z,68.48
2022-12-11T10:49:26.286Z,68.95
2022-12-11T10:51:56.115Z,68.68
2022-12-11T10:54:34.308Z,68.99
2022-12-11T10:57:04.323Z,68.86
2022-12-11T10:59:37.913Z,69.56
2022-12-11T11:02:08.524Z,69.28
2022-12-11T11:04:39.400Z,69.23
2022-12-11T11:07:14.490Z,69.28
2022-12-11T11:09:44.465Z,69.17
2022-12-11T11:12:21.393Z,69.44
2022-12-11T11:15:00.765Z,69.83
2022-12-11T11:17:34.702Z,69.82
2022-12-11T11:20:13.448Z,69.82
2022-12-11T11:22:45.933Z,69.82
2022-12-11T11:25:21.073Z,69.68
2022-12-11T11:27:55.117Z,69.49
2022-12-11T11:30:25.607Z,69.50
2022-12-11T11:32:56.282Z,69.72
2022-12-11T11:35:27.319Z,69.55
2022-12-11T11:38:01.696Z,69.39
2022-12-11T11:40:35.227Z,69.40
2022-12-11T11:43:07.168Z,69.16
2022-12-11T11:45:44.034Z,68.78
2022-12-11T11:48:23.900Z,68.48
2022-12-11T11:50:53.934Z,68.80
2022-12-11T11:53:38.093Z,68.71
2022-12-11T11:56:20.037Z,67.99
2022-12-11T11:58:56.159Z,68.28
2022-12-11T12:01:25.236Z,68.10
2022-12-11T12:03:53.787Z,68.12
2022-12-11T12:06:31.142Z,67.84
2022-12-11T12:09:13.074Z,67.87
2022-12-11T12:11:49.523Z,68.29
2022-12-11T12:14:51.233Z,68.12
2022-12-11T12:17:21.410Z,68.37
2022-12-11T12:20:00.094Z,68.49
2022-12-11T12:22:46.604Z,68.77
2022-12-11T12:25:23.306Z,68.53
2022-12-11T12:28:00.863Z,68.63
2022-12-11T12:30:36.848Z,69.25
2022-12-11T12:33:21.048Z,69.32
2022-12-11T12:36:00.841Z,69.57
2022-12-11T12:38:42.472Z,69.57
2022-12-11T12:41:21.845Z,68.68
2022-12-11T12:44:13.929Z,68.39
2022-12-11T12:46:51.753Z,68.73
2022-12-11T12:49:33.974Z,68.61
2022-12-11T12:52:03.295Z,68.47
2022-12-11T12:54:35.636Z,68.43
2022-12-11T12:57:05.396Z,68.60
2022-12-11T12:59:37.359Z,67.98
2022-12-11T13:02:09.421Z,67.89
2022-12-11T13:04:58.449Z,67.88
2022-12-11T13:07:35.044Z,67.80
2022-12-11T13:10:08.881Z,67.70
2022-12-11T13:12:45.404Z,66.86
2022-12-11T13:15:33.013Z,66.99
2022-12-11T13:18:31.750Z,67.28
2022-12-11T13:21:02.992Z,67.52
2022-12-11T13:23:40.706Z,67.80
2022-12-11T13:26:10.646Z,68.33
2022-12-11T13:28:51.119Z,68.14
2022-12-11T13:31:34.942Z,67.92
2022-12-11T13:34:19.746Z,67.53
2022-12-11T13:36:50.133Z,67.77
2022-12-11T13:39:20.943Z,67.89
2022-12-11T13:41:53.462Z,67.59
2022-12-11T13:44:25.962Z,67.64
2022-12-11T13:47:00.025Z,67.88
2022-12-11T13:49:31.345Z,67.69
2022-12-11T13:52:00.874Z,67.77
2022-12-11T13:54:31.408Z,67.70
2022-12-11T13:57:03.545Z,67.27
2022-12-11T13:59:34.958Z,67.13
2022-12-11T14:02:14.265Z,67.40
2022-12-11T14:04:43.442Z,66.63
2022-12-11T14:07:12.941Z,66.63
2022-12-11T14:09:45.469Z,66.53
2022-12-11T14:12:19.506Z,66.06
2022-12-11T14:14:52.358Z,66.55
2022-12-11T14:17:26.490Z,66.80
2022-12-11T14:19:55.879Z,66.99
2022-12-11T14:22:26.101Z,66.85
2022-12-11T14:24:56.206Z,66.93
2022-12-11T14:27:26.290Z,66.56
2022-12-11T14:29:54.534Z,66.42
2022-12-11T14:32:32.894Z,67.12
2022-12-11T14:35:03.473Z,67.02
2022-12-11T14:37:32.437Z,66.60
2022-12-11T14:40:04.426Z,67.39
2022-12-11T14:42:34.854Z,66.96
2022-12-11T14:45:09.420Z,67.26
2022-12-11T14:47:43.608Z,67.94
2022-12-11T14:50:19.254Z,67.83
2022-12-11T14:52:49.239Z,68.24
2022-12-11T14:55:20.950Z,67.98
2022-12-11T14:57:51.198Z,68.56
2022-12-11T15:00:24.590Z,68.71
2022-12-11T15:03:02.726Z,68.55
2022-12-11T15:05:37.121Z,68.36
2022-12-11T15:08:24.484Z,68.57
2022-12-11T15:11:07.315Z,68.40
2022-12-11T15:13:37.645Z,68.22
2022-12-11T15:16:08.374Z,68.24
2022-12-11T15:18:41.697Z,68.36
2022-12-11T15:21:13.268Z,68.14
2022-12-11T15:23:52.770Z,68.00
2022-12-11T15:26:22.059Z,67.76
2022-12-11T15:29:01.999Z,67.98
2022-12-11T15:31:32.006Z,67.54
2022-12-11T15:34:03.760Z,67.67
2022-12-11T15:36:34.803Z,67.34
2022-12-11T15:39:03.574Z,66.93
2022-12-11T15:41:33.432Z,66.89
2022-12-11T15:44:03.655Z,66.97
2022-12-11T15:46:36.073Z,66.58
2022-12-11T15:49:12.768Z,66.53
2022-12-11T15:51:43.103Z,66.16
2022-12-11T15:54:11.713Z,66.46
2022-12-11T15:56:41.024Z,65.91
2022-12-11T15:59:11.000Z,65.59
2022-12-11T16:01:38.895Z,65.19
2022-12-11T16:04:08.358Z,65.09
2022-12-11T16:06:36.324Z,65.39
2022-12-11T16:09:05.713Z,65.36
2022-12-11T16:11:33.685Z,64.68
2022-12-11T16:14:04.504Z,64.60
2022-12-11T16:16:32.650Z,64.48
2022-12-11T16:19:00.844Z,64.73
2022-12-11T16:21:30.377Z,64.88
2022-12-11T16:23:58.303Z,65.07
2022-12-11T16:26:26.212Z,65.24
2022-12-11T16:28:54.199Z,65.63
2022-12-11T16:31:22.300Z,66.21
2022-12-11T16:33:50.278Z,66.10
2022-12-11T16:36:20.153Z,65.88
2022-12-11T16:38:53.959Z,65.82
2022-12-11T16:41:23.800Z,65.90
2022-12-11T16:43:52.298Z,66.13
2022-12-11T16:46:21.327Z,66.27
2022-12-11T16:48:49.719Z,65.54
2022-12-11T16:51:18.305Z,65.51
2022-12-11T16:53:46.492Z,65.82
2022-12-11T16:56:16.152Z,66.75
2022-12-11T16:58:44.332Z,65.92
2022-12-11T17:01:13.930Z,66.43
2022-12-11T17:03:43.524Z,66.33
2022-12-11T17:06:13.848Z,65.80
2022-12-11T17:08:42.916Z,64.32
2022-12-11T17:11:13.390Z,63.40
2022-12-11T17:13:42.713Z,63.50
2022-12-11T17:16:14.170Z,63.40
2022-12-11T17:18:42.788Z,63.09
2022-12-11T17:21:12.561Z,63.08
2022-12-11T17:23:43.516Z,62.52
2022-12-11T17:26:15.151Z,61.63
2022-12-11T17:28:46.963Z,60.99
2022-12-11T17:31:19.735Z,60.11
2022-12-11T17:33:50.029Z,60.05
2022-12-11T17:36:21.634Z,60.20
2022-12-11T17:38:50.550Z,60.75
2022-12-11T17:41:20.901Z,60.88
2022-12-11T17:43:51.921Z,61.16
2022-12-11T17:46:21.772Z,61.18
2022-12-11T17:48:50.215Z,61.21
2022-12-11T17:51:23.823Z,60.95
2022-12-11T17:53:53.631Z,60.47
2022-12-11T17:56:21.626Z,60.67
2022-12-11T17:58:51.184Z,60.64
2022-12-11T18:01:19.769Z,60.93
2022-12-11T18:03:48.269Z,61.12
2022-12-11T18:06:17.040Z,61.19
2022-12-11T18:08:46.233Z,61.05
2022-12-11T18:11:16.740Z,60.47
2022-12-11T18:13:46.008Z,60.65
2022-12-11T18:16:17.811Z,61.26
2022-12-11T18:18:47.247Z,60.65
2022-12-11T18:21:17.477Z,60.63
2022-12-11T18:23:46.137Z,60.88
2022-12-11T18:26:15.396Z,60.29
2022-12-11T18:28:43.801Z,60.60
2022-12-11T18:31:13.722Z,60.24
2022-12-11T18:33:44.839Z,60.66
2022-12-11T18:36:13.729Z,60.63
2022-12-11T18:38:44.965Z,61.33
2022-12-11T18:41:15.113Z,61.15
2022-12-11T18:43:43.144Z,61.44
2022-12-11T18:46:14.245Z,61.86
2022-12-11T18:48:44.814Z,61.85
2022-12-11T18:51:15.639Z,62.09
2022-12-11T18:53:44.449Z,62.22
2022-12-11T18:56:14.791Z,62.58
2022-12-11T18:58:43.875Z,62.20
2022-12-11T19:01:14.119Z,62.35
2022-12-11T19:03:47.325Z,62.57
2022-12-11T19:06:19.118Z,63.11
2022-12-11T19:08:47.887Z,62.64
2022-12-11T19:11:17.732Z,62.42
2022-12-11T19:13:47.323Z,62.00
2022-12-11T19:16:17.336Z,62.13
2022-12-11T19:18:47.035Z,62.25
2022-12-11T19:21:16.787Z,62.47
2022-12-11T19:23:46.210Z,62.00
2022-12-11T19:26:16.960Z,62.14
2022-12-11T19:28:45.538Z,62.37
2022-12-11T19:31:16.345Z,62.94
2022-12-11T19:33:46.790Z,62.73
2022-12-11T19:36:17.792Z,62.91
2022-12-11T19:38:47.287Z,63.36
2022-12-11T19:41:18.355Z,63.57
2022-12-11T19:43:46.711Z,63.45
2022-12-11T19:46:16.096Z,63.32
2022-12-11T19:48:46.540Z,63.34
2022-12-11T19:51:16.170Z,62.82
2022-12-11T19:53:45.797Z,63.09
2022-12-11T19:56:14.860Z,62.75
2022-12-11T19:58:44.056Z,62.41
2022-12-11T20:01:22.544Z,62.18
2022-12-11T20:03:52.299Z,61.88
2022-12-11T20:06:21.007Z,62.30
2022-12-11T20:08:49.717Z,62.27
2022-12-11T20:11:19.231Z,62.12
2022-12-11T20:13:47.541Z,61.86
2022-12-11T20:16:17.313Z,61.52
2022-12-11T20:18:46.193Z,61.51
2022-12-11T20:21:18.118Z,61.50
2022-12-11T20:23:46.713Z,61.91
2022-12-11T20:26:17.701Z,62.48
2022-12-11T20:28:48.212Z,62.92
2022-12-11T20:31:20.428Z,63.25
2022-12-11T20:33:49.753Z,63.39
2022-12-11T20:36:21.426Z,63.27
2022-12-11T20:38:49.753Z,63.12
2022-12-11T20:41:21.303Z,63.05
2022-12-11T20:43:50.071Z,62.80
2022-12-11T20:46:20.326Z,62.84
2022-12-11T20:48:48.809Z,62.67
2022-12-11T20:51:25.824Z,62.02
2022-12-11T20:53:58.919Z,61.91
2022-12-11T20:56:29.599Z,61.95
2022-12-11T20:58:58.609Z,61.85
2022-12-11T21:01:28.521Z,62.13
2022-12-11T21:03:56.955Z,61.49
2022-12-11T21:06:28.403Z,61.77
2022-12-11T21:08:56.352Z,61.98
2022-12-11T21:11:25.106Z,62.24
2022-12-11T21:13:54.124Z,61.52
2022-12-11T21:16:23.567Z,62.00
2022-12-11T21:18:52.078Z,61.12
2022-12-11T21:21:22.193Z,62.04
2022-12-11T21:23:51.778Z,61.96
2022-12-11T21:26:19.958Z,62.25
2022-12-11T21:28:47.988Z,62.39
2022-12-11T21:31:19.327Z,62.68
2022-12-11T21:33:49.216Z,62.58
2022-12-11T21:36:19.895Z,61.75
2022-12-11T21:38:54.980Z,62.17
2022-12-11T21:41:26.694Z,61.84
2022-12-11T21:45:14.634Z,61.80
2022-12-11T21:46:45.824Z,61.72
2022-12-11T21:49:13.844Z,62.06
2022-12-11T21:51:47.181Z,61.98
2022-12-11T21:54:19.008Z,60.92
2022-12-11T21:56:48.260Z,61.02
2022-12-11T21:59:16.896Z,60.72
2022-12-11T22:01:47.207Z,60.25
2022-12-11T22:04:17.132Z,60.90
2022-12-11T22:06:47.380Z,60.62
2022-12-11T22:09:18.004Z,60.77
2022-12-11T22:11:47.576Z,60.82
2022-12-11T22:14:18.596Z,60.56
2022-12-11T22:16:47.266Z,60.68
2022-12-11T22:19:15.816Z,60.90
2022-12-11T22:21:44.257Z,61.00
2022-12-11T22:24:12.637Z,60.51
2022-12-11T22:26:41.902Z,60.76
2022-12-11T22:29:09.900Z,60.39
2022-12-11T22:31:37.918Z,60.41
2022-12-11T22:34:06.198Z,60.67
2022-12-11T22:36:34.312Z,61.29
2022-12-11T22:39:03.032Z,60.71
2022-12-11T22:41:32.727Z,60.12
2022-12-11T22:44:02.607Z,60.23
2022-12-11T22:46:31.763Z,60.40
2022-12-11T22:49:00.207Z,60.32
2022-12-11T22:51:28.421Z,59.93
2022-12-11T22:53:56.431Z,60.17
2022-12-11T22:56:24.992Z,60.06
2022-12-11T22:58:53.136Z,60.12
2022-12-11T23:01:25.187Z,60.50
2022-12-11T23:03:53.952Z,60.78
2022-12-11T23:06:24.925Z,60.55
2022-12-11T23:08:55.080Z,60.17
2022-12-11T23:11:25.889Z,60.23
2022-12-11T23:13:54.500Z,60.71
2022-12-11T23:16:26.310Z,60.96
2022-12-11T23:18:55.192Z,60.37
2022-12-11T23:21:24.375Z,60.23
2022-12-11T23:23:52.844Z,59.93
2022-12-11T23:26:21.827Z,59.88
2022-12-11T23:28:50.724Z,59.66
2022-12-11T23:31:18.844Z,59.72
2022-12-11T23:33:48.263Z,59.83
2022-12-11T23:36:16.456Z,60.37
2022-12-11T23:38:47.179Z,59.46
2022-12-11T23:41:17.594Z,60.11
2022-12-11T23:43:45.499Z,60.67
2022-12-11T23:46:16.357Z,60.27
2022-12-11T23:48:44.759Z,60.01
2022-12-11T23:51:16.583Z,59.65
2022-12-11T23:53:45.129Z,59.50
2022-12-11T23:56:15.870Z,59.82
2022-12-11T23:58:43.754Z,59.84
